createdAt,value
2023-09-07T00:00:51.029Z,87.56
2023-09-07T00:03:17.857Z,88.03
2023-09-07T00:05:44.612Z,88.72
2023-09-07T00:08:11.291Z,89.28
2023-09-07T00:10:38.063Z,89.25
2023-09-07T00:13:05.483Z,89.83
2023-09-07T00:15:38.116Z,90.98
2023-09-07T00:18:05.608Z,92.33
2023-09-07T00:20:34.569Z,93.10
2023-09-07T00:23:02.181Z,94.67
2023-09-07T00:25:29.062Z,95.29
2023-09-07T00:27:55.734Z,96.24
2023-09-07T00:30:23.092Z,97.09
2023-09-07T00:32:49.808Z,97.87
2023-09-07T00:35:16.504Z,98.56
2023-09-07T00:37:43.182Z,99.52
2023-09-07T00:40:10.249Z,99.54
2023-09-07T00:42:38.010Z,100.00
2023-09-07T00:45:05.049Z,100.00
2023-09-07T00:47:34.901Z,100.00
2023-09-07T00:50:01.889Z,100.00
2023-09-07T00:52:28.784Z,100.00
2023-09-07T00:54:55.935Z,100.00
2023-09-07T00:57:22.708Z,100.00
2023-09-07T00:59:49.734Z,100.00
2023-09-07T01:02:16.612Z,100.00
2023-09-07T01:04:43.989Z,100.00
2023-09-07T01:07:23.677Z,100.00
2023-09-07T01:09:54.798Z,100.00
2023-09-07T01:12:21.455Z,100.00
2023-09-07T01:14:48.223Z,100.00
2023-09-07T01:17:15.767Z,100.00
2023-09-07T01:19:42.869Z,100.00
2023-09-07T01:22:10.923Z,100.00
2023-09-07T01:24:39.917Z,100.00
2023-09-07T01:27:06.873Z,100.00
2023-09-07T01:29:35.012Z,100.00
2023-09-07T01:32:01.999Z,100.00
2023-09-07T01:34:29.663Z,100.00
2023-09-07T01:36:56.434Z,100.00
2023-09-07T01:39:23.820Z,100.00
2023-09-07T01:41:50.586Z,100.00
2023-09-07T01:44:17.267Z,100.00
2023-09-07T01:46:44.041Z,100.00
2023-09-07T01:49:10.765Z,100.00
2023-09-07T01:51:38.070Z,100.00
2023-09-07T01:54:05.358Z,100.00
2023-09-07T01:56:32.168Z,100.00
2023-09-07T01:58:59.037Z,100.00
2023-09-07T02:01:30.666Z,100.00
2023-09-07T02:03:57.983Z,100.00
2023-09-07T02:06:24.726Z,100.00
2023-09-07T02:08:51.396Z,100.00
2023-09-07T02:11:18.143Z,100.00
2023-09-07T02:13:45.578Z,100.00
2023-09-07T02:16:12.364Z,100.00
2023-09-07T02:18:41.090Z,100.00
2023-09-07T02:21:07.779Z,100.00
2023-09-07T02:23:34.577Z,100.00
2023-09-07T02:26:01.281Z,100.00
2023-09-07T02:28:28.061Z,100.00
2023-09-07T02:30:55.046Z,100.00
2023-09-07T02:33:21.741Z,100.00
2023-09-07T02:35:51.273Z,100.00
2023-09-07T02:38:18.076Z,100.00
2023-09-07T02:40:45.244Z,100.00
2023-09-07T02:43:12.572Z,100.00
2023-09-07T02:45:39.906Z,100.00
2023-09-07T02:48:07.529Z,100.00
2023-09-07T02:51:01.277Z,100.00
2023-09-07T02:53:28.076Z,100.00
2023-09-07T02:55:54.752Z,100.00
2023-09-07T02:58:21.475Z,100.00
2023-09-07T03:00:48.530Z,100.00
2023-09-07T03:03:16.826Z,100.00
2023-09-07T03:05:44.630Z,100.00
2023-09-07T03:08:11.349Z,100.00
2023-09-07T03:10:41.994Z,100.00
2023-09-07T03:13:09.465Z,100.00
2023-09-07T03:15:36.812Z,100.00
2023-09-07T03:18:03.997Z,100.00
2023-09-07T03:20:35.231Z,100.00
2023-09-07T03:23:02.973Z,100.00
2023-09-07T03:25:29.829Z,100.00
2023-09-07T03:27:56.617Z,100.00
2023-09-07T03:30:23.305Z,100.00
2023-09-07T03:32:50.106Z,100.00
2023-09-07T03:35:16.898Z,100.00
2023-09-07T03:37:44.403Z,100.00
2023-09-07T03:40:11.242Z,100.00
2023-09-07T03:42:38.594Z,100.00
2023-09-07T03:45:05.711Z,100.00
2023-09-07T03:47:32.420Z,100.00
2023-09-07T03:50:00.111Z,100.00
2023-09-07T03:52:30.622Z,100.00
2023-09-07T03:54:57.938Z,100.00
2023-09-07T03:57:26.411Z,100.00
2023-09-07T03:59:53.365Z,100.00
2023-09-07T04:02:20.748Z,100.00
2023-09-07T04:04:51.700Z,100.00
2023-09-07T04:07:18.651Z,100.00
2023-09-07T04:09:45.838Z,100.00
2023-09-07T04:12:13.139Z,100.00
2023-09-07T04:14:40.224Z,100.00
2023-09-07T04:17:07.043Z,100.00
2023-09-07T04:19:34.081Z,100.00
2023-09-07T04:22:01.877Z,100.00
2023-09-07T04:24:31.450Z,100.00
2023-09-07T04:27:02.577Z,100.00
2023-09-07T04:29:29.536Z,100.00
2023-09-07T04:31:56.293Z,100.00
2023-09-07T04:34:23.615Z,100.00
2023-09-07T04:36:50.426Z,100.00
2023-09-07T04:39:17.251Z,100.00
2023-09-07T04:41:43.883Z,100.00
2023-09-07T04:44:10.597Z,100.00
2023-09-07T04:46:37.246Z,100.00
2023-09-07T04:49:03.958Z,100.00
2023-09-07T04:51:31.020Z,100.00
2023-09-07T04:53:57.762Z,100.00
2023-09-07T04:56:27.073Z,100.00
2023-09-07T04:59:16.577Z,100.00
2023-09-07T05:01:44.210Z,100.00
2023-09-07T05:04:11.113Z,100.00
2023-09-07T05:06:39.822Z,100.00
2023-09-07T05:09:06.527Z,100.00
2023-09-07T05:11:35.859Z,100.00
2023-09-07T05:14:03.256Z,100.00
2023-09-07T05:16:30.201Z,100.00
2023-09-07T05:18:57.059Z,100.00
2023-09-07T05:21:23.982Z,100.00
2023-09-07T05:23:50.820Z,100.00
2023-09-07T05:26:23.707Z,100.00
2023-09-07T05:28:50.790Z,100.00
2023-09-07T05:31:17.679Z,100.00
2023-09-07T05:33:44.726Z,100.00
2023-09-07T05:36:11.703Z,100.00
2023-09-07T05:38:39.099Z,100.00
2023-09-07T05:41:06.164Z,100.00
2023-09-07T05:43:32.935Z,100.00
2023-09-07T05:45:59.738Z,100.00
2023-09-07T05:48:26.477Z,100.00
2023-09-07T05:50:53.194Z,100.00
2023-09-07T05:53:21.671Z,100.00
2023-09-07T05:55:48.469Z,100.00
2023-09-07T05:58:16.160Z,100.00
2023-09-07T06:00:43.059Z,100.00
2023-09-07T06:03:10.578Z,100.00
2023-09-07T06:05:38.082Z,100.00
2023-09-07T06:08:05.228Z,100.00
2023-09-07T06:10:32.166Z,100.00
2023-09-07T06:13:00.143Z,100.00
2023-09-07T06:15:28.357Z,100.00
2023-09-07T06:17:55.744Z,100.00
2023-09-07T06:20:22.730Z,97.25
2023-09-07T06:22:50.414Z,91.16
2023-09-07T06:25:17.313Z,86.35
2023-09-07T06:27:44.719Z,83.55
2023-09-07T06:30:11.824Z,83.04
2023-09-07T06:32:39.888Z,82.64
2023-09-07T06:35:07.295Z,79.57
2023-09-07T06:37:34.134Z,76.93
2023-09-07T06:40:01.065Z,77.38
2023-09-07T06:42:32.038Z,74.56
2023-09-07T06:44:59.208Z,72.20
2023-09-07T06:47:25.938Z,68.99
2023-09-07T06:49:52.776Z,66.96
2023-09-07T06:52:19.603Z,69.20
2023-09-07T06:54:46.389Z,68.16
2023-09-07T06:57:13.016Z,72.62
2023-09-07T06:59:39.732Z,68.21
2023-09-07T07:02:06.727Z,65.93
2023-09-07T07:04:33.503Z,67.91
2023-09-07T07:07:02.369Z,68.57
2023-09-07T07:09:29.858Z,68.41
2023-09-07T07:11:56.494Z,67.20
2023-09-07T07:14:23.215Z,67.52
2023-09-07T07:16:50.046Z,65.81
2023-09-07T07:19:16.779Z,62.89
2023-09-07T07:21:43.502Z,61.14
2023-09-07T07:24:10.181Z,61.80
2023-09-07T07:26:37.047Z,62.52
2023-09-07T07:29:06.710Z,62.52
2023-09-07T07:31:33.439Z,60.05
2023-09-07T07:34:00.087Z,62.06
2023-09-07T07:36:27.033Z,64.44
2023-09-07T07:38:53.776Z,66.78
2023-09-07T07:41:20.516Z,64.51
2023-09-07T07:43:47.381Z,63.31
2023-09-07T07:46:17.217Z,64.50
2023-09-07T07:48:44.161Z,63.05
2023-09-07T07:51:12.307Z,62.30
2023-09-07T07:53:39.554Z,62.38
2023-09-07T07:56:06.582Z,60.92
2023-09-07T07:58:33.293Z,60.97
2023-09-07T08:01:00.204Z,58.50
2023-09-07T08:03:27.240Z,60.71
2023-09-07T08:05:53.941Z,59.74
2023-09-07T08:08:20.664Z,58.39
2023-09-07T08:10:47.717Z,57.95
2023-09-07T08:13:15.018Z,55.88
2023-09-07T08:15:41.946Z,55.53
2023-09-07T08:18:10.287Z,55.48
2023-09-07T08:20:37.664Z,55.83
2023-09-07T08:23:08.373Z,58.09
2023-09-07T08:25:36.344Z,56.39
2023-09-07T08:28:06.392Z,54.17
2023-09-07T08:30:35.349Z,52.82
2023-09-07T08:33:03.397Z,52.94
2023-09-07T08:35:31.847Z,50.98
2023-09-07T08:37:59.946Z,51.52
2023-09-07T08:40:28.827Z,52.84
2023-09-07T08:42:55.919Z,52.78
2023-09-07T08:45:25.638Z,52.16
2023-09-07T08:47:54.227Z,52.07
2023-09-07T08:50:21.052Z,50.93
2023-09-07T08:52:52.885Z,51.01
2023-09-07T08:55:21.123Z,52.14
2023-09-07T08:57:47.975Z,51.74
2023-09-07T09:00:16.986Z,52.47
2023-09-07T09:02:56.048Z,52.25
2023-09-07T09:05:26.271Z,52.28
2023-09-07T09:08:02.666Z,51.47
2023-09-07T09:10:29.416Z,50.93
2023-09-07T09:12:56.096Z,52.74
2023-09-07T09:15:23.635Z,51.29
2023-09-07T09:17:50.436Z,51.07
2023-09-07T09:20:30.260Z,51.47
2023-09-07T09:22:57.650Z,52.00
2023-09-07T09:25:24.425Z,52.07
2023-09-07T09:27:51.108Z,51.91
2023-09-07T09:30:18.008Z,50.89
2023-09-07T09:32:45.194Z,50.04
2023-09-07T09:35:12.063Z,51.41
2023-09-07T09:37:47.036Z,51.49
2023-09-07T09:40:15.102Z,51.47
2023-09-07T09:42:44.811Z,51.40
2023-09-07T09:45:12.845Z,51.84
2023-09-07T09:47:41.639Z,51.47
2023-09-07T09:50:11.035Z,51.21
2023-09-07T09:52:38.532Z,50.56
2023-09-07T09:55:09.162Z,51.11
2023-09-07T09:57:37.778Z,51.01
2023-09-07T10:00:20.802Z,50.97
2023-09-07T10:02:52.512Z,51.03
2023-09-07T10:05:20.320Z,51.54
2023-09-07T10:07:51.248Z,51.90
2023-09-07T10:10:20.655Z,51.07
2023-09-07T10:12:56.672Z,51.18
2023-09-07T10:15:28.127Z,51.67
2023-09-07T10:18:12.339Z,51.80
2023-09-07T10:20:59.611Z,51.99
2023-09-07T10:23:46.377Z,51.66
2023-09-07T10:26:13.064Z,51.20
2023-09-07T10:28:40.188Z,51.84
2023-09-07T10:31:14.341Z,51.52
2023-09-07T10:34:27.975Z,51.18
2023-09-07T10:37:29.794Z,51.57
2023-09-07T10:39:57.886Z,51.42
2023-09-07T10:42:27.940Z,51.82
2023-09-07T10:44:55.206Z,51.70
2023-09-07T10:47:22.661Z,51.51
2023-09-07T10:49:49.510Z,51.01
2023-09-07T10:52:16.353Z,51.44
2023-09-07T10:54:43.099Z,51.94
2023-09-07T10:57:18.448Z,51.59
2023-09-07T10:59:48.485Z,51.36
2023-09-07T11:02:17.033Z,51.09
2023-09-07T11:04:44.109Z,50.97
2023-09-07T11:07:11.237Z,51.20
2023-09-07T11:09:44.902Z,51.18
2023-09-07T11:12:17.139Z,51.46
2023-09-07T11:14:44.263Z,51.82
2023-09-07T11:17:11.265Z,52.11
2023-09-07T11:19:38.586Z,52.15
2023-09-07T11:22:05.702Z,52.06
2023-09-07T11:24:35.717Z,52.38
2023-09-07T11:27:04.108Z,53.27
2023-09-07T11:29:34.500Z,53.61
2023-09-07T11:32:08.946Z,53.59
2023-09-07T11:34:36.318Z,53.96
2023-09-07T11:37:06.013Z,53.64
2023-09-07T11:39:32.751Z,53.84
2023-09-07T11:41:59.443Z,53.73
2023-09-07T11:44:26.144Z,53.48
2023-09-07T11:46:52.923Z,53.42
2023-09-07T11:49:21.437Z,53.43
2023-09-07T11:51:48.865Z,53.28
2023-09-07T11:54:15.556Z,53.60
2023-09-07T11:56:44.148Z,53.48
2023-09-07T11:59:11.083Z,53.45
2023-09-07T12:01:38.171Z,53.53
2023-09-07T12:04:05.803Z,54.10
2023-09-07T12:06:32.991Z,53.65
2023-09-07T12:09:08.196Z,53.48
2023-09-07T12:11:35.032Z,53.36
2023-09-07T12:14:02.094Z,53.67
2023-09-07T12:16:29.476Z,53.46
2023-09-07T12:18:56.659Z,52.82
2023-09-07T12:21:23.453Z,52.93
2023-09-07T12:23:50.052Z,52.83
2023-09-07T12:26:18.306Z,52.17
2023-09-07T12:28:45.873Z,51.57
2023-09-07T12:31:13.234Z,52.18
2023-09-07T12:33:40.177Z,51.49
2023-09-07T12:36:10.518Z,52.24
2023-09-07T12:38:37.556Z,52.50
2023-09-07T12:41:04.550Z,52.73
2023-09-07T12:43:31.699Z,52.50
2023-09-07T12:46:00.078Z,53.04
2023-09-07T12:48:26.970Z,52.92
2023-09-07T12:50:54.739Z,52.46
2023-09-07T12:53:25.547Z,52.57
2023-09-07T12:55:55.916Z,52.26
2023-09-07T12:58:22.695Z,52.30
2023-09-07T13:01:11.323Z,52.50
2023-09-07T13:03:40.986Z,52.40
2023-09-07T13:06:07.882Z,52.32
2023-09-07T13:08:36.464Z,52.72
2023-09-07T13:11:03.640Z,52.22
2023-09-07T13:13:30.826Z,52.61
2023-09-07T13:15:57.911Z,52.22
2023-09-07T13:18:24.702Z,52.46
2023-09-07T13:21:26.803Z,52.00
2023-09-07T13:23:53.467Z,51.88
2023-09-07T13:26:20.267Z,52.58
2023-09-07T13:28:46.920Z,52.49
2023-09-07T13:31:13.832Z,52.00
2023-09-07T13:33:40.527Z,51.64
2023-09-07T13:36:07.411Z,51.64
2023-09-07T13:38:34.076Z,50.94
2023-09-07T13:41:00.692Z,51.52
2023-09-07T13:43:27.452Z,51.19
2023-09-07T13:45:54.418Z,51.42
2023-09-07T13:48:21.062Z,52.04
2023-09-07T13:50:48.132Z,51.84
2023-09-07T13:53:14.729Z,52.09
2023-09-07T13:55:43.211Z,52.14
2023-09-07T13:58:09.859Z,55.29
2023-09-07T14:00:36.538Z,56.14
2023-09-07T14:03:04.364Z,55.71
2023-09-07T14:05:31.302Z,56.53
2023-09-07T14:08:00.691Z,55.77
2023-09-07T14:10:27.358Z,55.55
2023-09-07T14:12:53.965Z,55.34
2023-09-07T14:15:20.567Z,54.96
2023-09-07T14:17:47.298Z,55.19
2023-09-07T14:20:14.057Z,55.21
2023-09-07T14:22:40.785Z,54.94
2023-09-07T14:25:08.761Z,54.89
2023-09-07T14:27:35.528Z,55.17
2023-09-07T14:30:02.253Z,54.56
2023-09-07T14:32:28.918Z,54.07
2023-09-07T14:34:55.616Z,54.78
2023-09-07T17:33:49.536Z,56.98
2023-09-07T17:36:21.215Z,57.10
2023-09-07T17:38:48.848Z,57.72
2023-09-07T17:41:15.684Z,57.64
2023-09-07T17:43:47.135Z,57.67
2023-09-07T17:46:14.312Z,57.83
2023-09-07T17:48:41.134Z,57.65
2023-09-07T17:51:07.912Z,57.80
2023-09-07T17:53:35.860Z,57.87
2023-09-07T17:56:09.828Z,58.04
2023-09-07T17:58:39.177Z,58.14
2023-09-07T18:01:11.024Z,58.41
2023-09-07T18:03:37.947Z,58.56
2023-09-07T18:06:05.774Z,58.46
2023-09-07T18:08:36.602Z,58.61
2023-09-07T18:11:04.288Z,58.91
2023-09-07T18:13:30.941Z,58.86
2023-09-07T18:15:59.210Z,58.58
2023-09-07T18:18:26.072Z,58.90
2023-09-07T18:20:52.886Z,59.10
2023-09-07T18:23:20.381Z,59.31
2023-09-07T18:25:47.177Z,59.29
2023-09-07T18:28:15.228Z,59.65
2023-09-07T18:30:42.857Z,59.76
2023-09-07T18:33:10.679Z,59.74
2023-09-07T18:35:37.844Z,60.23
2023-09-07T18:38:04.944Z,60.25
2023-09-07T18:40:31.677Z,60.61
2023-09-07T18:42:58.444Z,60.69
2023-09-07T18:45:27.270Z,60.76
2023-09-07T18:47:54.189Z,60.88
2023-09-07T18:50:24.297Z,60.76
2023-09-07T18:52:52.059Z,60.82
2023-09-07T18:55:19.837Z,60.74
2023-09-07T18:57:48.292Z,60.77
2023-09-07T19:00:16.611Z,60.83
2023-09-07T19:02:43.929Z,61.12
2023-09-07T19:05:10.735Z,61.35
2023-09-07T19:07:39.863Z,61.23
2023-09-07T19:10:08.041Z,61.40
2023-09-07T19:12:36.280Z,61.06
2023-09-07T19:15:04.175Z,61.36
2023-09-07T19:17:30.949Z,61.07
2023-09-07T19:19:58.319Z,61.57
2023-09-07T19:22:25.054Z,61.42
2023-09-07T19:24:51.998Z,61.16
2023-09-07T19:27:19.695Z,60.68
2023-09-07T19:29:47.974Z,60.73
2023-09-07T19:32:19.306Z,60.40
2023-09-07T19:34:46.805Z,60.75
2023-09-07T19:37:13.424Z,60.92
2023-09-07T19:39:40.112Z,60.71
2023-09-07T19:42:06.822Z,60.68
2023-09-07T19:44:33.823Z,60.99
2023-09-07T19:47:01.347Z,61.25
2023-09-07T19:49:28.461Z,60.96
2023-09-07T19:51:55.070Z,61.18
2023-09-07T19:54:21.747Z,61.50
2023-09-07T19:56:48.476Z,62.63
2023-09-07T19:59:15.178Z,62.19
2023-09-07T20:02:02.605Z,58.19
2023-09-07T20:04:30.198Z,62.01
2023-09-07T20:06:56.951Z,61.90
2023-09-07T20:09:25.927Z,62.77
2023-09-07T20:11:54.157Z,62.52
2023-09-07T20:14:21.639Z,59.41
2023-09-07T20:16:48.668Z,58.83
2023-09-07T20:19:15.817Z,59.71
2023-09-07T20:21:42.571Z,60.56
2023-09-07T20:24:09.966Z,60.89
2023-09-07T20:26:37.272Z,61.11
2023-09-07T20:29:09.243Z,61.22
2023-09-07T20:31:35.987Z,61.42
2023-09-07T20:34:02.798Z,62.07
2023-09-07T20:36:29.480Z,62.24
2023-09-07T20:38:56.510Z,62.94
2023-09-07T20:41:23.379Z,61.37
2023-09-07T20:43:50.122Z,60.97
2023-09-07T20:46:16.951Z,60.81
2023-09-07T20:48:43.867Z,60.56
2023-09-07T20:51:10.810Z,60.50
2023-09-07T20:53:37.603Z,60.50
2023-09-07T20:56:04.624Z,60.51
2023-09-07T20:58:31.437Z,60.74
2023-09-07T21:00:58.321Z,60.88
2023-09-07T21:03:25.411Z,60.86
2023-09-07T21:05:52.770Z,61.14
2023-09-07T21:08:19.571Z,61.24
2023-09-07T21:10:46.984Z,61.37
2023-09-07T21:13:14.488Z,58.12
2023-09-07T21:15:41.434Z,57.92
2023-09-07T21:18:08.451Z,57.28
2023-09-07T21:20:36.511Z,57.79
2023-09-07T21:23:04.390Z,56.47
2023-09-07T21:25:31.377Z,56.43
2023-09-07T21:27:58.677Z,56.47
2023-09-07T21:30:25.758Z,56.43
2023-09-07T21:32:52.737Z,56.44
2023-09-07T21:35:19.728Z,56.47
2023-09-07T21:37:46.514Z,56.63
2023-09-07T21:40:13.362Z,56.64
2023-09-07T21:42:40.037Z,56.89
2023-09-07T21:45:07.206Z,57.13
2023-09-07T21:47:34.289Z,57.38
2023-09-07T21:50:01.254Z,57.90
2023-09-07T21:52:28.006Z,59.63
2023-09-07T21:54:55.666Z,61.04
2023-09-07T21:57:25.142Z,61.02
2023-09-07T21:59:53.196Z,61.99
2023-09-07T22:02:21.011Z,60.92
2023-09-07T22:04:52.393Z,60.46
2023-09-07T22:07:19.518Z,60.87
2023-09-07T22:09:46.268Z,60.58
2023-09-07T22:12:13.223Z,60.88
2023-09-07T22:14:40.360Z,61.07
2023-09-07T22:17:07.218Z,60.96
2023-09-07T22:19:33.969Z,61.20
2023-09-07T22:22:00.772Z,60.99
2023-09-07T22:24:27.543Z,61.49
2023-09-07T22:26:59.641Z,61.47
2023-09-07T22:29:26.340Z,61.38
2023-09-07T22:31:53.105Z,61.73
2023-09-07T22:34:19.903Z,61.91
2023-09-07T22:36:46.661Z,62.40
2023-09-07T22:39:13.374Z,62.70
2023-09-07T22:41:41.147Z,63.55
2023-09-07T22:44:07.940Z,63.96
2023-09-07T22:46:34.820Z,64.49
2023-09-07T22:49:02.741Z,65.14
2023-09-07T22:51:29.776Z,65.85
2023-09-07T22:53:56.832Z,66.53
2023-09-07T22:56:23.578Z,67.38
2023-09-07T22:58:50.219Z,67.98
2023-09-07T23:01:16.885Z,69.27
2023-09-07T23:03:44.130Z,69.82
2023-09-07T23:06:11.020Z,71.41
2023-09-07T23:08:37.757Z,71.92
2023-09-07T23:11:08.155Z,73.07
2023-09-07T23:13:36.037Z,73.99
2023-09-07T23:16:03.674Z,75.16
2023-09-07T23:18:30.794Z,75.55
2023-09-07T23:20:57.735Z,76.82
2023-09-07T23:23:27.318Z,78.88
2023-09-07T23:25:54.965Z,82.14
2023-09-07T23:28:23.591Z,84.63
2023-09-07T23:30:51.892Z,85.13
2023-09-07T23:33:18.781Z,84.96
2023-09-07T23:35:45.463Z,86.71
2023-09-07T23:38:12.317Z,88.09
2023-09-07T23:40:39.032Z,88.79
2023-09-07T23:43:06.134Z,88.28
2023-09-07T23:45:32.892Z,89.17
2023-09-07T23:47:59.642Z,89.95
2023-09-07T23:50:27.111Z,90.19
2023-09-07T23:52:53.841Z,90.85
2023-09-07T23:55:20.560Z,91.23
2023-09-07T23:57:47.239Z,90.97
